createdAt,value
2023-04-18T00:00:22.535Z,32.30
2023-04-18T00:01:22.588Z,32.28
2023-04-18T00:02:22.839Z,32.28
2023-04-18T00:03:22.838Z,32.29
2023-04-18T00:04:22.906Z,32.26
2023-04-18T00:05:22.937Z,32.28
2023-04-18T00:06:22.890Z,32.27
2023-04-18T00:07:22.953Z,32.26
2023-04-18T00:08:23.006Z,32.26
2023-04-18T00:09:23.088Z,32.26
2023-04-18T00:10:23.144Z,32.24
2023-04-18T00:11:23.198Z,32.25
2023-04-18T00:12:23.243Z,32.25
2023-04-18T00:13:23.398Z,32.24
2023-04-18T00:14:23.415Z,32.25
2023-04-18T00:15:23.501Z,32.24
2023-04-18T00:16:23.610Z,32.22
2023-04-18T00:17:23.565Z,32.21
2023-04-18T00:18:23.592Z,32.22
2023-04-18T00:19:23.685Z,32.22
2023-04-18T00:20:23.718Z,32.24
2023-04-18T00:21:23.774Z,32.22
2023-04-18T00:22:24.384Z,32.22
2023-04-18T00:23:23.905Z,32.20
2023-04-18T00:24:23.948Z,32.20
2023-04-18T00:25:24.001Z,32.19
2023-04-18T00:26:24.048Z,32.21
2023-04-18T00:27:24.104Z,32.19
2023-04-18T00:28:24.169Z,32.21
2023-04-18T00:29:24.208Z,32.20
2023-04-18T00:30:24.271Z,32.20
2023-04-18T00:31:24.329Z,32.19
2023-04-18T00:32:24.380Z,32.18
2023-04-18T00:33:24.397Z,32.19
2023-04-18T00:34:24.446Z,32.15
2023-04-18T00:35:24.483Z,32.14
2023-04-18T00:36:24.513Z,32.17
2023-04-18T00:37:24.547Z,32.17
2023-04-18T00:38:24.599Z,32.15
2023-04-18T00:39:24.658Z,32.17
2023-04-18T00:40:24.720Z,32.16
2023-04-18T00:41:24.787Z,32.17
2023-04-18T00:42:24.838Z,32.16
2023-04-18T00:43:24.892Z,32.17
2023-04-18T00:44:24.926Z,32.16
2023-04-18T00:45:24.993Z,32.16
2023-04-18T00:46:25.095Z,32.16
2023-04-18T00:47:25.117Z,32.16
2023-04-18T00:48:25.115Z,32.14
2023-04-18T00:49:25.123Z,32.15
2023-04-18T00:50:25.247Z,32.13
2023-04-18T00:51:25.221Z,32.13
2023-04-18T00:52:25.259Z,32.13
2023-04-18T00:53:25.403Z,32.13
2023-04-18T00:54:25.362Z,32.11
2023-04-18T00:55:25.432Z,32.10
2023-04-18T00:56:25.492Z,32.14
2023-04-18T00:57:25.513Z,32.12
2023-04-18T00:58:25.528Z,32.11
2023-04-18T00:59:25.565Z,32.09
2023-04-18T01:00:25.660Z,32.10
2023-04-18T01:01:25.659Z,32.11
2023-04-18T01:02:25.722Z,32.08
2023-04-18T01:03:25.927Z,32.09
2023-04-18T01:04:25.812Z,32.10
2023-04-18T01:05:25.730Z,32.08
2023-04-18T01:06:25.797Z,32.12
2023-04-18T01:07:25.797Z,32.09
2023-04-18T01:08:25.824Z,32.06
2023-04-18T01:09:25.855Z,32.08
2023-04-18T01:10:25.871Z,32.07
2023-04-18T01:11:26.404Z,32.07
2023-04-18T01:12:25.944Z,32.05
2023-04-18T01:13:25.942Z,32.05
2023-04-18T01:14:25.972Z,32.06
2023-04-18T01:15:25.984Z,32.06
2023-04-18T01:16:26.109Z,32.05
2023-04-18T01:17:26.025Z,32.02
2023-04-18T01:18:26.030Z,32.03
2023-04-18T01:19:26.111Z,32.02
2023-04-18T01:20:26.059Z,32.02
2023-04-18T01:21:26.088Z,32.03
2023-04-18T01:22:26.137Z,32.04
2023-04-18T01:23:26.194Z,32.02
2023-04-18T01:24:26.243Z,32.01
2023-04-18T01:25:26.277Z,32.02
2023-04-18T01:26:26.908Z,32.01
2023-04-18T01:27:26.368Z,32.03
2023-04-18T01:28:26.403Z,32.02
2023-04-18T01:29:26.444Z,31.99
2023-04-18T01:30:26.488Z,32.00
2023-04-18T01:31:26.586Z,32.00
2023-04-18T01:32:26.579Z,32.00
2023-04-18T01:33:26.518Z,32.02
2023-04-18T01:34:26.542Z,32.00
2023-04-18T01:35:26.559Z,32.00
2023-04-18T01:36:26.581Z,31.97
2023-04-18T01:37:26.723Z,31.98
2023-04-18T01:38:26.738Z,31.99
2023-04-18T01:39:26.694Z,31.98
2023-04-18T01:40:26.713Z,31.97
2023-04-18T01:41:27.415Z,31.99
2023-04-18T01:42:26.792Z,31.97
2023-04-18T01:43:26.859Z,31.95
2023-04-18T01:44:26.948Z,31.97
2023-04-18T01:45:26.922Z,31.98
2023-04-18T01:46:26.957Z,31.97
2023-04-18T01:47:26.981Z,31.96
2023-04-18T01:48:27.049Z,31.95
2023-04-18T01:49:27.492Z,31.94
2023-04-18T01:50:27.027Z,31.94
2023-04-18T01:51:27.016Z,31.95
2023-04-18T01:52:27.015Z,31.94
2023-04-18T01:53:27.036Z,31.94
2023-04-18T01:54:27.072Z,31.94
2023-04-18T01:55:27.108Z,31.92
2023-04-18T01:56:27.174Z,31.90
2023-04-18T01:57:27.281Z,31.92
2023-04-18T01:58:27.232Z,31.93
2023-04-18T01:59:27.255Z,31.94
2023-04-18T02:00:27.314Z,31.92
2023-04-18T02:01:27.384Z,31.89
2023-04-18T02:02:27.497Z,31.91
2023-04-18T02:03:27.525Z,31.90
2023-04-18T02:04:27.402Z,31.89
2023-04-18T02:05:27.933Z,31.91
2023-04-18T02:06:27.446Z,31.91
2023-04-18T02:07:27.486Z,31.87
2023-04-18T02:08:27.474Z,31.88
2023-04-18T02:09:27.487Z,31.90
2023-04-18T02:10:27.484Z,31.86
2023-04-18T02:11:27.504Z,31.90
2023-04-18T02:12:27.512Z,31.89
2023-04-18T02:13:27.531Z,31.87
2023-04-18T02:14:27.550Z,31.85
2023-04-18T02:15:27.543Z,31.85
2023-04-18T02:16:27.597Z,31.89
2023-04-18T02:17:28.529Z,31.85
2023-04-18T02:18:28.436Z,31.86
2023-04-18T02:19:27.630Z,31.88
2023-04-18T02:20:27.661Z,31.87
2023-04-18T02:21:27.658Z,31.82
2023-04-18T02:22:27.721Z,31.84
2023-04-18T02:23:27.669Z,31.85
2023-04-18T02:24:27.685Z,31.83
2023-04-18T02:25:27.678Z,31.82
2023-04-18T02:26:27.697Z,31.84
2023-04-18T02:27:27.743Z,31.83
2023-04-18T02:28:27.718Z,31.83
2023-04-18T02:29:27.727Z,31.82
2023-04-18T02:30:27.730Z,31.83
2023-04-18T02:31:27.775Z,31.83
2023-04-18T02:32:27.837Z,31.81
2023-04-18T02:33:27.771Z,31.83
2023-04-18T02:34:27.786Z,31.82
2023-04-18T02:35:27.795Z,31.79
2023-04-18T02:36:27.803Z,31.83
2023-04-18T02:37:27.805Z,31.81
2023-04-18T02:38:27.802Z,31.82
2023-04-18T02:39:27.826Z,31.79
2023-04-18T02:40:27.814Z,31.79
2023-04-18T02:41:27.844Z,31.79
2023-04-18T02:42:27.825Z,31.79
2023-04-18T02:43:27.839Z,31.78
2023-04-18T02:44:27.853Z,31.77
2023-04-18T02:45:27.844Z,31.78
2023-04-18T02:46:27.960Z,31.78
2023-04-18T02:47:27.861Z,31.79
2023-04-18T02:48:27.871Z,31.78
2023-04-18T02:49:27.871Z,31.78
2023-04-18T02:50:27.861Z,31.76
2023-04-18T02:51:27.872Z,31.77
2023-04-18T02:52:27.875Z,31.77
2023-04-18T02:53:27.865Z,31.74
2023-04-18T02:54:27.876Z,31.77
2023-04-18T02:55:27.858Z,31.78
2023-04-18T02:56:27.886Z,31.77
2023-04-18T02:57:27.886Z,31.75
2023-04-18T02:58:27.998Z,31.77
2023-04-18T02:59:27.899Z,31.77
2023-04-18T03:00:27.911Z,31.79
2023-04-18T03:01:27.928Z,31.77
2023-04-18T03:02:27.992Z,31.78
2023-04-18T03:03:28.004Z,31.75
2023-04-18T03:04:28.017Z,31.67
2023-04-18T03:05:28.012Z,31.73
2023-04-18T03:06:28.128Z,31.70
2023-04-18T03:07:28.105Z,31.68
2023-04-18T03:08:28.154Z,31.69
2023-04-18T03:09:28.207Z,31.67
2023-04-18T03:10:28.276Z,31.67
2023-04-18T03:11:28.606Z,31.65
2023-04-18T03:12:28.374Z,31.62
2023-04-18T03:13:28.486Z,31.62
2023-04-18T03:14:28.496Z,31.60
2023-04-18T03:15:28.534Z,31.58
2023-04-18T03:16:28.622Z,31.56
2023-04-18T03:17:28.660Z,31.55
2023-04-18T03:18:28.692Z,31.52
2023-04-18T03:19:28.745Z,31.52
2023-04-18T03:20:28.790Z,31.48
2023-04-18T03:21:28.824Z,31.48
2023-04-18T03:22:29.458Z,31.46
2023-04-18T03:23:28.912Z,31.46
2023-04-18T03:24:28.959Z,31.42
2023-04-18T03:25:29.011Z,31.43
2023-04-18T03:26:29.040Z,31.41
2023-04-18T03:27:29.096Z,31.40
2023-04-18T03:28:29.121Z,31.38
2023-04-18T03:29:29.139Z,31.37
2023-04-18T03:30:29.178Z,31.34
2023-04-18T03:31:30.000Z,31.32
2023-04-18T03:32:30.020Z,31.31
2023-04-18T03:33:29.295Z,31.29
2023-04-18T03:34:29.313Z,31.29
2023-04-18T03:35:29.355Z,31.25
2023-04-18T03:36:29.366Z,31.24
2023-04-18T03:37:29.396Z,31.24
2023-04-18T03:38:29.432Z,31.23
2023-04-18T03:39:29.457Z,31.22
2023-04-18T03:40:29.490Z,31.20
2023-04-18T03:41:29.532Z,31.21
2023-04-18T03:42:29.550Z,31.19
2023-04-18T03:43:29.578Z,31.20
2023-04-18T03:44:29.601Z,31.16
2023-04-18T03:45:29.621Z,31.16
2023-04-18T03:46:29.740Z,31.16
2023-04-18T03:47:29.752Z,31.14
2023-04-18T03:48:29.721Z,31.11
2023-04-18T03:49:29.725Z,31.11
2023-04-18T03:50:29.800Z,31.12
2023-04-18T03:51:29.783Z,31.06
2023-04-18T03:52:29.980Z,31.07
2023-04-18T03:53:29.837Z,31.08
2023-04-18T03:54:29.856Z,31.08
2023-04-18T03:55:29.895Z,31.05
2023-04-18T03:56:29.909Z,31.03
2023-04-18T03:57:29.938Z,31.06
2023-04-18T03:58:29.960Z,31.04
2023-04-18T03:59:29.980Z,31.04
2023-04-18T04:00:30.002Z,31.04
2023-04-18T04:01:30.081Z,31.02
2023-04-18T04:02:30.159Z,30.97
2023-04-18T04:03:30.156Z,30.98
2023-04-18T04:04:30.141Z,30.98
2023-04-18T04:05:30.138Z,30.96
2023-04-18T04:06:30.147Z,30.94
2023-04-18T04:07:30.181Z,30.92
2023-04-18T04:08:30.206Z,30.95
2023-04-18T04:09:30.243Z,30.95
2023-04-18T04:10:30.249Z,30.91
2023-04-18T04:11:30.284Z,30.92
2023-04-18T04:12:30.311Z,30.91
2023-04-18T04:13:30.330Z,30.90
2023-04-18T04:14:30.356Z,30.91
2023-04-18T04:15:30.376Z,30.92
2023-04-18T04:16:30.425Z,30.91
2023-04-18T04:17:30.463Z,30.88
2023-04-18T04:18:30.509Z,30.90
2023-04-18T04:19:30.523Z,30.88
2023-04-18T04:20:30.506Z,30.88
2023-04-18T04:21:30.590Z,30.86
2023-04-18T04:22:30.550Z,30.88
2023-04-18T04:23:30.570Z,30.86
2023-04-18T04:24:30.592Z,30.88
2023-04-18T04:25:30.627Z,30.86
2023-04-18T04:26:30.659Z,30.85
2023-04-18T04:27:30.654Z,30.85
2023-04-18T04:28:30.669Z,30.84
2023-04-18T04:29:30.666Z,30.85
2023-04-18T04:30:30.694Z,30.86
2023-04-18T04:31:31.031Z,30.84
2023-04-18T04:32:30.776Z,30.84
2023-04-18T04:33:30.767Z,30.81
2023-04-18T04:34:30.781Z,30.85
2023-04-18T04:35:30.789Z,30.79
2023-04-18T04:36:30.811Z,30.79
2023-04-18T04:37:30.830Z,30.81
2023-04-18T04:38:31.228Z,30.79
2023-04-18T04:39:30.862Z,30.76
2023-04-18T04:40:30.961Z,30.77
2023-04-18T04:41:30.922Z,30.75
2023-04-18T04:42:30.940Z,30.76
2023-04-18T04:43:30.950Z,30.72
2023-04-18T04:44:31.006Z,30.71
2023-04-18T04:45:31.021Z,30.70
2023-04-18T04:46:31.006Z,30.68
2023-04-18T04:47:31.063Z,30.70
2023-04-18T04:48:31.028Z,30.68
2023-04-18T04:49:31.051Z,30.67
2023-04-18T04:50:31.067Z,30.67
2023-04-18T04:51:31.052Z,30.68
2023-04-18T04:52:31.078Z,30.69
2023-04-18T04:53:31.091Z,30.68
2023-04-18T04:54:31.100Z,30.68
2023-04-18T04:55:31.129Z,30.67
2023-04-18T04:56:31.160Z,30.67
2023-04-18T04:57:31.164Z,30.66
2023-04-18T04:58:31.176Z,30.64
2023-04-18T04:59:31.989Z,30.67
2023-04-18T05:00:31.519Z,30.63
2023-04-18T05:01:31.257Z,30.64
2023-04-18T05:02:31.363Z,30.65
2023-04-18T05:03:31.450Z,30.62
2023-04-18T05:04:31.367Z,30.65
2023-04-18T05:05:31.293Z,30.64
2023-04-18T05:06:31.316Z,30.63
2023-04-18T05:07:31.317Z,30.64
2023-04-18T05:08:31.334Z,30.62
2023-04-18T05:09:31.433Z,30.59
2023-04-18T05:10:31.390Z,30.60
2023-04-18T05:11:31.396Z,30.61
2023-04-18T05:12:31.407Z,30.62
2023-04-18T05:13:31.424Z,30.62
2023-04-18T05:14:31.452Z,30.61
2023-04-18T05:15:31.459Z,30.59
2023-04-18T05:16:31.488Z,30.60
2023-04-18T05:17:31.510Z,30.61
2023-04-18T05:18:33.052Z,30.67
2023-04-18T05:19:31.491Z,30.67
2023-04-18T05:20:31.482Z,30.65
2023-04-18T05:21:31.470Z,30.64
2023-04-18T05:22:31.480Z,30.71
2023-04-18T05:23:31.471Z,30.67
2023-04-18T05:24:31.474Z,30.66
2023-04-18T05:25:31.449Z,30.71
2023-04-18T05:26:31.452Z,30.74
2023-04-18T05:27:31.436Z,30.80
2023-04-18T05:28:31.430Z,30.90
2023-04-18T05:29:31.432Z,30.92
2023-04-18T05:30:31.430Z,30.95
2023-04-18T05:31:31.540Z,31.00
2023-04-18T05:32:31.437Z,31.00
2023-04-18T05:33:31.389Z,30.99
2023-04-18T05:34:31.377Z,30.96
2023-04-18T05:35:31.398Z,30.95
2023-04-18T05:36:31.442Z,30.96
2023-04-18T05:37:31.368Z,30.94
2023-04-18T05:38:31.360Z,30.91
2023-04-18T05:39:32.013Z,30.88
2023-04-18T05:40:31.358Z,30.89
2023-04-18T05:41:31.347Z,30.88
2023-04-18T05:42:31.341Z,30.86
2023-04-18T05:43:31.342Z,30.85
2023-04-18T05:44:32.010Z,30.83
2023-04-18T05:45:31.322Z,30.83
2023-04-18T05:46:31.349Z,30.78
2023-04-18T05:47:31.318Z,30.80
2023-04-18T05:48:31.313Z,30.78
2023-04-18T05:49:31.291Z,30.76
2023-04-18T05:50:31.288Z,30.73
2023-04-18T05:51:31.301Z,30.72
2023-04-18T05:52:31.293Z,30.69
2023-04-18T05:53:31.270Z,30.69
2023-04-18T05:54:31.267Z,30.64
2023-04-18T05:55:32.016Z,30.69
2023-04-18T05:56:31.243Z,30.65
2023-04-18T05:57:31.264Z,30.67
2023-04-18T05:58:31.238Z,30.68
2023-04-18T05:59:31.224Z,30.67
2023-04-18T06:00:31.227Z,30.66
2023-04-18T06:01:31.203Z,30.65
2023-04-18T06:02:31.299Z,30.58
2023-04-18T06:03:31.497Z,30.60
2023-04-18T06:04:31.421Z,30.57
2023-04-18T06:05:31.616Z,30.55
2023-04-18T06:06:31.165Z,30.52
2023-04-18T06:07:31.238Z,30.52
2023-04-18T06:08:31.158Z,30.52
2023-04-18T06:09:31.154Z,30.51
2023-04-18T06:10:31.187Z,30.47
2023-04-18T06:11:31.144Z,30.49
2023-04-18T06:12:31.124Z,30.48
2023-04-18T06:13:31.139Z,30.43
2023-04-18T06:14:31.131Z,30.42
2023-04-18T06:15:31.109Z,30.44
2023-04-18T06:16:31.174Z,30.44
2023-04-18T06:17:31.148Z,30.40
2023-04-18T06:18:31.099Z,30.38
2023-04-18T06:19:31.085Z,30.38
2023-04-18T06:20:32.025Z,30.35
2023-04-18T06:21:31.064Z,30.35
2023-04-18T06:22:31.082Z,30.37
2023-04-18T06:23:31.060Z,30.35
2023-04-18T06:24:31.317Z,30.31
2023-04-18T06:25:31.038Z,30.32
2023-04-18T06:26:31.033Z,30.30
2023-04-18T06:27:31.871Z,30.28
2023-04-18T06:28:31.028Z,30.31
2023-04-18T06:29:31.008Z,30.24
2023-04-18T06:30:31.002Z,30.24
2023-04-18T06:31:31.076Z,30.24
2023-04-18T06:32:31.002Z,30.24
2023-04-18T06:33:30.984Z,30.20
2023-04-18T06:34:31.453Z,30.17
2023-04-18T06:35:30.965Z,30.17
2023-04-18T06:36:30.968Z,30.17
2023-04-18T06:37:30.962Z,30.13
2023-04-18T06:38:30.946Z,30.14
2023-04-18T06:39:30.944Z,30.12
2023-04-18T06:40:30.930Z,30.10
2023-04-18T06:41:30.946Z,30.07
2023-04-18T06:42:30.926Z,30.07
2023-04-18T06:43:30.923Z,30.08
2023-04-18T06:44:30.926Z,30.09
2023-04-18T06:45:30.923Z,30.06
2023-04-18T06:46:30.962Z,30.03
2023-04-18T06:47:30.927Z,29.99
2023-04-18T06:48:30.914Z,30.02
2023-04-18T06:49:30.891Z,29.98
2023-04-18T06:50:30.873Z,29.98
2023-04-18T06:51:30.875Z,30.00
2023-04-18T06:52:30.890Z,29.97
2023-04-18T06:53:30.858Z,29.94
2023-04-18T06:54:30.854Z,29.93
2023-04-18T06:55:30.901Z,29.87
2023-04-18T06:56:30.826Z,29.87
2023-04-18T06:57:30.840Z,29.89
2023-04-18T06:58:30.828Z,29.87
2023-04-18T06:59:30.818Z,29.86
2023-04-18T07:00:30.826Z,29.86
2023-04-18T07:01:30.994Z,29.85
2023-04-18T07:02:30.888Z,29.86
2023-04-18T07:03:30.904Z,29.85
2023-04-18T07:04:30.930Z,29.83
2023-04-18T07:05:30.920Z,29.72
2023-04-18T07:06:30.980Z,29.59
2023-04-18T07:07:31.031Z,29.52
2023-04-18T07:08:31.091Z,29.39
2023-04-18T07:09:31.101Z,29.35
2023-04-18T07:10:31.145Z,29.28
2023-04-18T07:11:31.253Z,29.20
2023-04-18T07:12:31.217Z,29.10
2023-04-18T07:13:31.235Z,29.06
2023-04-18T07:14:33.983Z,28.99
2023-04-18T07:15:31.248Z,28.95
2023-04-18T07:16:31.252Z,28.91
2023-04-18T07:17:31.301Z,28.86
2023-04-18T07:18:37.864Z,28.83
2023-04-18T07:19:32.209Z,28.82
2023-04-18T07:20:31.244Z,28.73
2023-04-18T07:21:31.211Z,29.23
2023-04-18T07:22:31.187Z,27.61
2023-04-18T07:23:31.259Z,27.85
2023-04-18T07:24:32.183Z,28.75
2023-04-18T07:25:32.048Z,28.66
2023-04-18T07:26:32.012Z,28.46
2023-04-18T07:27:32.161Z,29.17
2023-04-18T07:28:31.164Z,29.34
2023-04-18T07:29:31.150Z,29.65
2023-04-18T07:30:32.145Z,31.19
2023-04-18T07:31:31.195Z,31.03
2023-04-18T07:32:31.128Z,30.90
2023-04-18T07:33:31.123Z,31.37
2023-04-18T07:34:31.188Z,31.82
2023-04-18T07:35:31.102Z,31.92
2023-04-18T07:36:31.086Z,32.03
2023-04-18T07:37:31.091Z,32.09
2023-04-18T07:38:31.081Z,32.25
2023-04-18T07:39:31.566Z,32.39
2023-04-18T07:40:31.106Z,32.48
2023-04-18T07:41:31.075Z,32.58
2023-04-18T07:42:31.057Z,32.62
2023-04-18T07:43:31.065Z,32.77
2023-04-18T07:44:31.083Z,32.92
2023-04-18T07:45:31.167Z,33.14
2023-04-18T07:46:31.205Z,33.23
2023-04-18T07:47:32.293Z,33.60
2023-04-18T07:48:31.212Z,33.90
2023-04-18T07:49:31.230Z,34.23
2023-04-18T07:50:31.279Z,34.32
2023-04-18T07:51:31.279Z,34.44
2023-04-18T07:52:31.295Z,34.49
2023-04-18T07:53:31.312Z,34.64
2023-04-18T07:54:31.332Z,34.74
2023-04-18T07:55:31.349Z,34.91
2023-04-18T07:56:31.371Z,35.10
2023-04-18T07:57:31.485Z,35.21
2023-04-18T07:58:31.596Z,35.24
2023-04-18T07:59:31.563Z,35.38
2023-04-18T08:00:31.556Z,35.50
2023-04-18T08:01:31.563Z,35.62
2023-04-18T08:02:31.634Z,35.72
2023-04-18T08:03:31.692Z,35.83
2023-04-18T08:04:31.717Z,35.97
2023-04-18T08:05:31.679Z,36.13
2023-04-18T08:06:31.637Z,36.31
2023-04-18T08:07:31.715Z,36.32
2023-04-18T08:08:31.759Z,36.53
2023-04-18T08:09:31.687Z,36.79
2023-04-18T08:10:31.643Z,36.72
2023-04-18T08:11:31.656Z,36.86
2023-04-18T08:12:31.666Z,36.87
2023-04-18T08:13:31.686Z,36.91
2023-04-18T08:14:31.724Z,37.00
2023-04-18T08:15:31.767Z,37.05
2023-04-18T08:16:31.820Z,36.50
2023-04-18T08:17:31.838Z,34.77
2023-04-18T08:18:31.790Z,33.02
2023-04-18T08:19:31.802Z,30.77
2023-04-18T08:20:31.826Z,30.05
2023-04-18T08:21:31.875Z,30.08
2023-04-18T08:22:31.940Z,30.06
2023-04-18T08:23:31.979Z,30.30
2023-04-18T08:24:31.987Z,29.68
2023-04-18T08:25:31.993Z,29.93
2023-04-18T08:26:32.005Z,29.88
2023-04-18T08:27:32.013Z,29.92
2023-04-18T08:28:32.019Z,30.19
2023-04-18T08:29:32.034Z,30.75
2023-04-18T08:30:32.040Z,31.42
2023-04-18T08:31:33.143Z,31.53
2023-04-18T08:32:32.649Z,31.55
2023-04-18T08:33:32.038Z,31.55
2023-04-18T08:34:32.592Z,31.53
2023-04-18T08:35:32.110Z,31.60
2023-04-18T08:36:32.162Z,31.62
2023-04-18T08:37:32.230Z,31.32
2023-04-18T08:38:32.290Z,31.58
2023-04-18T08:39:32.342Z,31.65
2023-04-18T08:40:32.648Z,31.62
2023-04-18T08:41:32.520Z,31.59
2023-04-18T08:42:32.484Z,31.58
2023-04-18T08:43:32.549Z,31.52
2023-04-18T08:44:32.559Z,31.43
2023-04-18T08:45:33.703Z,31.34
2023-04-18T08:46:32.625Z,31.30
2023-04-18T08:47:32.672Z,31.31
2023-04-18T08:48:32.672Z,31.41
2023-04-18T08:49:32.667Z,31.49
2023-04-18T08:50:32.699Z,31.56
2023-04-18T08:51:32.717Z,31.63
2023-04-18T08:52:32.746Z,31.69
2023-04-18T08:53:32.753Z,31.81
2023-04-18T08:54:32.842Z,31.91
2023-04-18T08:55:32.800Z,31.99
2023-04-18T08:56:32.838Z,32.07
2023-04-18T08:57:32.924Z,32.19
2023-04-18T08:58:32.945Z,32.32
2023-04-18T08:59:32.946Z,32.36
2023-04-18T09:00:32.960Z,32.39
2023-04-18T09:01:32.985Z,32.50
2023-04-18T09:02:33.065Z,32.55
2023-04-18T09:03:33.089Z,32.67
2023-04-18T09:04:32.995Z,32.63
2023-04-18T09:05:33.036Z,32.76
2023-04-18T09:06:32.958Z,32.91
2023-04-18T09:07:32.959Z,33.10
2023-04-18T09:08:32.949Z,33.26
2023-04-18T09:09:32.974Z,33.36
2023-04-18T09:10:33.212Z,33.39
2023-04-18T09:11:33.025Z,33.53
2023-04-18T09:12:33.091Z,33.64
2023-04-18T09:13:33.146Z,33.72
2023-04-18T09:14:33.222Z,33.75
2023-04-18T09:15:33.604Z,33.89
2023-04-18T09:16:33.341Z,33.86
2023-04-18T09:17:33.427Z,34.01
2023-04-18T09:18:33.437Z,34.25
2023-04-18T09:19:33.552Z,34.32
2023-04-18T09:20:33.570Z,34.37
2023-04-18T09:21:33.618Z,34.44
2023-04-18T09:22:33.679Z,34.39
2023-04-18T09:23:33.732Z,34.35
2023-04-18T09:24:33.789Z,34.34
2023-04-18T09:25:33.862Z,34.33
2023-04-18T09:26:33.991Z,34.43
2023-04-18T09:27:33.962Z,34.52
2023-04-18T09:28:34.043Z,34.57
2023-04-18T09:29:34.081Z,34.61
2023-04-18T09:30:34.162Z,34.72
2023-04-18T09:31:34.300Z,34.66
2023-04-18T09:32:34.306Z,34.49
2023-04-18T09:33:34.318Z,33.15
2023-04-18T09:34:34.369Z,33.62
2023-04-18T09:35:34.904Z,33.98
2023-04-18T09:36:34.503Z,33.86
2023-04-18T09:37:34.493Z,33.60
2023-04-18T09:38:34.561Z,33.26
2023-04-18T09:39:34.567Z,33.25
2023-04-18T09:40:34.598Z,32.92
2023-04-18T09:41:34.627Z,32.71
2023-04-18T09:42:34.654Z,32.28
2023-04-18T09:43:34.669Z,31.27
2023-04-18T09:44:34.649Z,31.85
2023-04-18T09:45:34.663Z,31.70
2023-04-18T09:46:34.772Z,30.67
2023-04-18T09:47:34.803Z,31.13
2023-04-18T09:48:34.754Z,31.00
2023-04-18T09:49:34.759Z,30.28
2023-04-18T09:50:34.789Z,30.68
2023-04-18T09:51:34.793Z,30.71
2023-04-18T09:52:34.803Z,30.51
2023-04-18T09:53:34.842Z,30.38
2023-04-18T09:54:34.862Z,30.45
2023-04-18T09:55:34.876Z,30.75
2023-04-18T09:56:35.874Z,29.91
2023-04-18T09:57:34.873Z,29.09
2023-04-18T09:58:34.848Z,29.41
2023-04-18T09:59:34.852Z,29.74
2023-04-18T10:00:34.846Z,28.70
2023-04-18T10:01:34.867Z,29.37
2023-04-18T10:02:34.909Z,29.01
2023-04-18T10:03:34.997Z,28.68
2023-04-18T10:04:34.886Z,28.62
2023-04-18T10:05:34.869Z,28.73
2023-04-18T10:06:34.810Z,28.64
2023-04-18T10:07:34.835Z,28.97
2023-04-18T10:08:34.792Z,28.57
2023-04-18T10:09:34.777Z,29.30
2023-04-18T10:10:34.767Z,29.52
2023-04-18T10:11:34.763Z,28.79
2023-04-18T10:12:34.751Z,28.86
2023-04-18T10:13:34.743Z,29.23
2023-04-18T10:14:34.749Z,29.17
2023-04-18T10:15:34.782Z,29.14
2023-04-18T10:17:34.748Z,29.07
2023-04-18T10:18:34.773Z,29.02
2023-04-18T10:19:34.709Z,29.04
2023-04-18T10:20:35.835Z,29.02
2023-04-18T10:21:34.727Z,29.04
2023-04-18T10:22:35.628Z,29.02
2023-04-18T10:23:34.820Z,28.98
2023-04-18T10:24:34.798Z,29.00
2023-04-18T10:25:34.919Z,29.01
2023-04-18T10:26:34.792Z,29.04
2023-04-18T10:27:35.794Z,29.06
2023-04-18T10:28:35.137Z,29.06
2023-04-18T10:29:34.884Z,29.07
2023-04-18T10:30:34.916Z,29.11
2023-04-18T10:31:34.790Z,29.14
2023-04-18T10:32:34.767Z,29.15
2023-04-18T10:33:34.785Z,29.13
2023-04-18T10:34:34.809Z,29.14
2023-04-18T10:35:35.626Z,29.14
2023-04-18T10:36:34.760Z,29.14
2023-04-18T10:37:34.788Z,29.17
2023-04-18T10:38:34.718Z,29.18
2023-04-18T10:39:34.810Z,29.17
2023-04-18T10:40:34.743Z,29.18
2023-04-18T10:41:34.697Z,29.20
2023-04-18T10:42:34.707Z,29.20
2023-04-18T10:43:34.687Z,29.24
2023-04-18T10:44:34.684Z,29.19
2023-04-18T10:45:34.662Z,29.17
2023-04-18T10:46:34.675Z,29.20
2023-04-18T10:47:34.863Z,29.18
2023-04-18T10:49:34.638Z,29.24
2023-04-18T10:50:34.637Z,29.23
2023-04-18T10:51:34.633Z,29.24
2023-04-18T10:52:34.638Z,29.20
2023-04-18T10:53:34.672Z,29.24
2023-04-18T10:54:34.596Z,29.19
2023-04-18T10:55:34.641Z,29.17
2023-04-18T10:56:34.595Z,29.17
2023-04-18T10:57:34.601Z,29.17
2023-04-18T10:58:34.585Z,29.15
2023-04-18T10:59:34.578Z,29.14
2023-04-18T11:00:34.644Z,29.12
2023-04-18T11:01:34.568Z,29.12
2023-04-18T11:02:34.783Z,29.26
2023-04-18T11:03:34.607Z,29.32
2023-04-18T11:04:34.637Z,29.28
2023-04-18T11:05:34.550Z,29.25
2023-04-18T11:06:34.536Z,29.68
2023-04-18T11:07:34.664Z,30.37
2023-04-18T11:08:34.516Z,30.17
2023-04-18T11:09:34.513Z,30.44
2023-04-18T11:10:34.515Z,30.20
2023-04-18T11:11:34.501Z,30.70
2023-04-18T11:12:35.364Z,31.61
2023-04-18T11:13:34.491Z,31.33
2023-04-18T11:14:34.483Z,31.11
2023-04-18T11:15:34.480Z,31.11
2023-04-18T11:16:34.506Z,31.10
2023-04-18T11:17:34.500Z,31.11
2023-04-18T11:18:34.437Z,31.11
2023-04-18T11:19:34.427Z,31.06
2023-04-18T11:20:34.425Z,31.10
2023-04-18T11:21:34.429Z,31.14
2023-04-18T11:22:34.427Z,31.14
2023-04-18T11:23:34.517Z,31.15
2023-04-18T11:24:34.498Z,31.11
2023-04-18T11:25:34.535Z,31.14
2023-04-18T11:26:35.693Z,31.11
2023-04-18T11:27:34.614Z,31.12
2023-04-18T11:28:34.645Z,31.11
2023-04-18T11:29:34.688Z,31.11
2023-04-18T11:30:34.710Z,31.10
2023-04-18T11:31:34.922Z,31.10
2023-04-18T11:32:34.900Z,31.09
2023-04-18T11:33:34.831Z,31.05
2023-04-18T11:34:34.837Z,31.08
2023-04-18T11:35:34.894Z,31.08
2023-04-18T11:36:34.906Z,31.07
2023-04-18T11:37:34.946Z,31.08
2023-04-18T11:38:35.296Z,31.09
2023-04-18T11:39:35.018Z,31.10
2023-04-18T11:40:35.043Z,31.08
2023-04-18T11:41:35.090Z,31.10
2023-04-18T11:42:35.120Z,31.01
2023-04-18T11:43:35.153Z,31.00
2023-04-18T11:44:36.292Z,30.95
2023-04-18T11:45:35.288Z,30.98
2023-04-18T11:46:35.371Z,30.97
2023-04-18T11:47:35.347Z,30.96
2023-04-18T11:48:35.351Z,30.98
2023-04-18T11:49:35.383Z,30.97
2023-04-18T11:50:35.424Z,30.97
2023-04-18T11:51:35.477Z,30.96
2023-04-18T11:52:35.522Z,30.94
2023-04-18T11:53:35.539Z,30.91
2023-04-18T11:54:35.569Z,30.90
2023-04-18T11:55:35.590Z,30.90
2023-04-18T11:56:36.909Z,30.94
2023-04-18T11:57:35.665Z,30.94
2023-04-18T11:58:35.685Z,30.90
2023-04-18T11:59:35.758Z,30.84
2023-04-18T12:00:35.747Z,30.88
2023-04-18T12:01:35.780Z,30.86
2023-04-18T12:02:35.895Z,30.84
2023-04-18T12:03:36.057Z,30.82
2023-04-18T12:04:36.115Z,30.80
2023-04-18T12:05:36.114Z,30.89
2023-04-18T12:06:36.006Z,30.78
2023-04-18T12:07:36.056Z,30.70
2023-04-18T12:08:36.045Z,30.74
2023-04-18T12:09:36.083Z,30.75
2023-04-18T12:10:36.118Z,30.75
2023-04-18T12:11:36.164Z,30.78
2023-04-18T12:12:36.217Z,30.78
2023-04-18T12:13:36.313Z,30.87
2023-04-18T12:14:36.272Z,30.77
2023-04-18T12:15:36.340Z,30.78
2023-04-18T12:16:36.392Z,30.82
2023-04-18T12:17:36.406Z,30.82
2023-04-18T12:18:36.425Z,30.80
2023-04-18T12:19:36.496Z,30.81
2023-04-18T12:20:36.528Z,30.81
2023-04-18T12:21:36.560Z,30.82
2023-04-18T12:22:36.602Z,30.83
2023-04-18T12:23:36.714Z,30.69
2023-04-18T12:24:36.726Z,30.75
2023-04-18T12:25:36.714Z,30.78
2023-04-18T12:26:36.763Z,30.79
2023-04-18T12:27:36.814Z,30.74
2023-04-18T12:28:36.853Z,30.72
2023-04-18T12:29:36.895Z,30.75
2023-04-18T12:30:37.757Z,30.79
2023-04-18T12:31:37.047Z,30.82
2023-04-18T12:32:37.205Z,30.79
2023-04-18T12:33:37.093Z,30.61
2023-04-18T12:34:37.133Z,30.79
2023-04-18T12:35:37.175Z,30.84
2023-04-18T12:36:37.214Z,30.86
2023-04-18T12:37:37.278Z,30.81
2023-04-18T12:38:37.327Z,30.81
2023-04-18T12:39:37.354Z,30.85
2023-04-18T12:40:37.406Z,30.82
2023-04-18T12:41:39.102Z,30.81
2023-04-18T12:42:37.502Z,30.83
2023-04-18T12:43:37.540Z,30.77
2023-04-18T12:44:37.581Z,30.78
2023-04-18T12:45:37.629Z,30.80
2023-04-18T12:46:37.698Z,30.78
2023-04-18T12:47:37.756Z,30.81
2023-04-18T12:48:37.917Z,30.79
2023-04-18T12:49:37.839Z,30.79
2023-04-18T12:50:37.893Z,30.78
2023-04-18T12:51:37.956Z,30.82
2023-04-18T12:52:37.992Z,30.81
2023-04-18T12:53:38.027Z,30.74
2023-04-18T12:54:38.169Z,30.64